createdAt,value
2019-03-26T00:02:20.868Z,4.00
2019-03-26T00:05:08.574Z,4.13
2019-03-26T00:07:55.860Z,4.77
2019-03-26T00:10:36.369Z,3.63
2019-03-26T00:13:16.810Z,3.33
2019-03-26T00:15:56.893Z,3.40
2019-03-26T00:18:37.058Z,6.63
2019-03-26T00:21:17.329Z,4.83
2019-03-26T00:23:57.144Z,4.13
2019-03-26T00:26:37.193Z,4.30
2019-03-26T00:29:05.519Z,5.17
2019-03-26T00:31:52.841Z,4.53
2019-03-26T00:34:21.111Z,3.97
2019-03-26T00:37:08.397Z,5.27
2019-03-26T00:39:48.666Z,6.03
2019-03-26T00:42:31.387Z,4.20
2019-03-26T00:45:11.468Z,4.47
2019-03-26T00:47:52.139Z,5.77
2019-03-26T00:50:32.629Z,4.87
2019-03-26T00:53:12.830Z,4.13
2019-03-26T00:55:53.012Z,6.07
2019-03-26T00:58:33.279Z,4.33
2019-03-26T01:01:13.714Z,4.53
2019-03-26T01:03:55.222Z,4.60
2019-03-26T01:06:24.290Z,5.40
2019-03-26T01:09:11.597Z,7.87
2019-03-26T01:11:52.045Z,5.47
2019-03-26T01:14:31.918Z,8.20
2019-03-26T01:17:12.239Z,8.83
2019-03-26T01:19:52.055Z,7.17
2019-03-26T01:22:32.161Z,9.63
2019-03-26T01:25:12.229Z,7.13
2019-03-26T01:27:52.337Z,5.20
2019-03-26T01:30:32.484Z,7.13
2019-03-26T01:33:12.761Z,6.20
2019-03-26T01:35:40.935Z,7.37
2019-03-26T01:38:28.450Z,6.37
2019-03-26T01:41:15.802Z,7.27
2019-03-26T01:43:56.269Z,6.80
2019-03-26T01:46:36.408Z,7.57
2019-03-26T01:49:16.565Z,8.83
2019-03-26T01:51:56.685Z,7.23
2019-03-26T01:54:36.567Z,8.30
2019-03-26T01:57:16.798Z,7.23
2019-03-26T01:59:56.861Z,7.80
2019-03-26T02:02:36.914Z,6.67
2019-03-26T02:05:17.145Z,6.20
2019-03-26T02:07:57.445Z,6.93
2019-03-26T02:10:37.845Z,6.57
2019-03-26T02:13:18.456Z,5.80
2019-03-26T02:15:58.581Z,7.00
2019-03-26T02:18:38.849Z,6.50
2019-03-26T02:21:19.222Z,6.77
2019-03-26T02:23:59.435Z,6.40
2019-03-26T02:26:39.441Z,6.37
2019-03-26T02:29:19.511Z,7.43
2019-03-26T02:31:59.690Z,7.87
2019-03-26T02:34:39.932Z,9.23
2019-03-26T02:37:19.828Z,6.70
2019-03-26T02:40:00.307Z,6.43
2019-03-26T02:42:41.165Z,8.80
2019-03-26T02:45:21.584Z,7.80
2019-03-26T02:48:02.140Z,8.80
2019-03-26T02:50:42.062Z,8.80
2019-03-26T02:53:22.087Z,7.97
2019-03-26T02:56:02.195Z,7.90
2019-03-26T02:58:42.444Z,7.43
2019-03-26T03:01:11.116Z,6.43
2019-03-26T03:03:58.457Z,8.60
2019-03-26T03:06:45.793Z,8.87
2019-03-26T03:09:27.157Z,8.20
2019-03-26T03:12:07.458Z,9.47
2019-03-26T03:14:48.330Z,9.33
2019-03-26T03:17:28.357Z,10.87
2019-03-26T03:20:08.459Z,9.00
2019-03-26T03:22:48.470Z,9.50
2019-03-26T03:25:28.697Z,9.77
2019-03-26T03:28:08.679Z,8.90
2019-03-26T03:30:48.774Z,9.33
2019-03-26T03:33:29.146Z,9.13
2019-03-26T03:36:09.344Z,11.00
2019-03-26T03:38:49.370Z,9.37
2019-03-26T03:41:29.347Z,9.30
2019-03-26T03:44:09.374Z,9.37
2019-03-26T03:46:49.554Z,8.40
2019-03-26T03:49:29.722Z,9.50
2019-03-26T03:52:09.715Z,9.17
2019-03-26T03:54:49.889Z,8.60
2019-03-26T03:57:29.910Z,9.40
2019-03-26T04:00:10.037Z,9.67
2019-03-26T04:02:50.206Z,10.50
2019-03-26T04:05:30.345Z,9.43
2019-03-26T04:08:10.338Z,10.53
2019-03-26T04:10:50.652Z,10.20
2019-03-26T04:13:30.785Z,11.37
2019-03-26T04:16:11.105Z,10.40
2019-03-26T04:18:51.258Z,11.77
2019-03-26T04:21:31.662Z,11.27
2019-03-26T04:24:11.602Z,12.80
2019-03-26T04:26:51.766Z,12.13
2019-03-26T04:29:31.575Z,10.37
2019-03-26T04:32:11.611Z,13.17
2019-03-26T04:34:51.816Z,11.57
2019-03-26T04:37:19.982Z,12.30
2019-03-26T04:40:07.253Z,12.27
2019-03-26T04:42:54.763Z,12.90
2019-03-26T04:45:34.304Z,12.13
2019-03-26T04:48:02.447Z,12.10
2019-03-26T04:50:49.859Z,13.33
2019-03-26T04:53:30.185Z,12.73
2019-03-26T04:56:10.050Z,16.00
2019-03-26T04:58:50.018Z,14.60
2019-03-26T05:01:29.978Z,16.47
2019-03-26T05:04:10.532Z,13.57
2019-03-26T05:06:51.089Z,16.20
2019-03-26T05:09:19.256Z,15.70
2019-03-26T05:11:47.364Z,15.27
2019-03-26T05:14:15.585Z,15.53
2019-03-26T05:17:02.883Z,16.17
2019-03-26T05:19:43.281Z,14.40
2019-03-26T05:22:24.286Z,16.50
2019-03-26T05:25:04.967Z,14.97
2019-03-26T05:27:45.809Z,15.87
2019-03-26T05:30:25.661Z,13.93
2019-03-26T05:33:05.878Z,14.60
2019-03-26T05:35:46.325Z,13.67
2019-03-26T05:38:26.189Z,14.37
2019-03-26T05:41:06.481Z,15.63
2019-03-26T05:43:46.430Z,12.57
2019-03-26T05:46:26.589Z,11.80
2019-03-26T05:49:06.890Z,12.87
2019-03-26T05:51:46.918Z,12.53
2019-03-26T05:54:28.106Z,12.33
2019-03-26T05:57:08.344Z,11.47
2019-03-26T05:59:48.521Z,15.47
2019-03-26T06:02:18.120Z,13.93
2019-03-26T06:05:05.949Z,14.20
2019-03-26T06:07:45.825Z,13.33
2019-03-26T06:10:26.046Z,14.00
2019-03-26T06:13:06.094Z,15.17
2019-03-26T06:15:46.378Z,16.57
2019-03-26T06:18:14.584Z,14.03
2019-03-26T06:21:01.869Z,12.70
2019-03-26T06:23:49.416Z,13.73
2019-03-26T06:26:29.418Z,16.83
2019-03-26T06:29:09.481Z,14.77
2019-03-26T06:31:49.806Z,18.30
2019-03-26T06:34:29.955Z,15.23
2019-03-26T06:37:17.728Z,14.50
2019-03-26T06:39:52.416Z,14.53
2019-03-26T06:42:32.569Z,13.53
2019-03-26T06:45:12.711Z,13.27
2019-03-26T06:47:53.109Z,13.60
2019-03-26T06:50:32.979Z,12.27
2019-03-26T06:53:13.051Z,11.27
2019-03-26T06:55:53.236Z,11.33
2019-03-26T06:58:33.174Z,12.57
2019-03-26T07:01:13.273Z,11.77
2019-03-26T07:03:53.765Z,10.23
2019-03-26T07:06:21.891Z,11.23
2019-03-26T07:09:11.753Z,10.87
2019-03-26T07:11:59.525Z,10.43
2019-03-26T07:17:38.511Z,12.20
2019-03-26T07:20:18.437Z,10.73
2019-03-26T07:22:58.673Z,8.97
2019-03-26T07:25:38.675Z,8.37
2019-03-26T07:28:18.644Z,9.47
2019-03-26T07:30:59.209Z,8.07
2019-03-26T07:33:41.510Z,8.07
2019-03-26T07:36:21.805Z,6.70
2019-03-26T07:39:01.887Z,6.43
2019-03-26T07:41:42.038Z,7.67
2019-03-26T07:44:22.621Z,8.00
2019-03-26T07:47:03.006Z,6.60
2019-03-26T07:49:43.268Z,5.50
2019-03-26T07:52:11.617Z,5.20
2019-03-26T07:54:58.923Z,6.00
2019-03-26T07:57:46.467Z,4.80
2019-03-26T08:00:26.772Z,5.00
2019-03-26T08:03:07.014Z,4.50
2019-03-26T08:05:47.141Z,4.43
2019-03-26T08:08:27.257Z,4.10
2019-03-26T08:11:07.403Z,3.77
2019-03-26T08:13:47.577Z,3.03
2019-03-26T08:16:15.791Z,3.33
2019-03-26T08:19:03.078Z,2.63
2019-03-26T08:21:50.397Z,3.40
2019-03-26T08:27:29.101Z,5.93
2019-03-26T08:30:09.490Z,5.50
2019-03-26T08:32:49.637Z,5.20
2019-03-26T08:35:29.697Z,5.93
2019-03-26T08:38:12.943Z,5.40
2019-03-26T08:40:54.189Z,4.30
2019-03-26T08:43:33.947Z,4.50
2019-03-26T08:46:13.957Z,5.10
2019-03-26T08:48:54.237Z,4.27
2019-03-26T08:51:34.203Z,5.43
2019-03-26T08:54:14.455Z,6.00
2019-03-26T08:56:42.710Z,5.87
2019-03-26T08:59:30.827Z,6.00
2019-03-26T09:02:10.521Z,6.20
2019-03-26T09:04:50.695Z,5.10
2019-03-26T09:07:32.219Z,5.37
2019-03-26T09:10:12.486Z,5.20
2019-03-26T09:12:53.121Z,5.13
2019-03-26T09:15:33.202Z,5.07
2019-03-26T09:18:13.613Z,5.03
2019-03-26T09:20:53.668Z,6.50
2019-03-26T09:23:33.841Z,5.63
2019-03-26T09:26:14.286Z,8.07
2019-03-26T09:28:54.329Z,6.67
2019-03-26T09:31:34.312Z,6.73
2019-03-26T09:34:14.590Z,7.53
2019-03-26T09:36:42.929Z,7.17
2019-03-26T09:39:30.286Z,6.47
2019-03-26T09:42:17.529Z,6.23
2019-03-26T09:44:57.286Z,5.83
2019-03-26T09:47:37.682Z,5.87
2019-03-26T09:50:17.723Z,5.50
2019-03-26T09:52:57.524Z,6.60
2019-03-26T09:55:37.643Z,6.10
2019-03-26T09:58:17.754Z,6.00
2019-03-26T10:00:57.922Z,6.03
2019-03-26T10:03:38.582Z,5.97
2019-03-26T10:06:23.123Z,7.10
2019-03-26T10:09:00.441Z,5.90
2019-03-26T10:11:40.612Z,5.73
2019-03-26T10:14:21.089Z,6.73
2019-03-26T10:17:01.600Z,7.13
2019-03-26T10:19:41.981Z,6.30
2019-03-26T10:22:21.670Z,6.77
2019-03-26T10:25:01.619Z,6.00
2019-03-26T10:27:41.713Z,6.03
2019-03-26T10:30:24.752Z,5.23
2019-03-26T10:33:04.029Z,5.13
2019-03-26T10:38:43.342Z,6.07
2019-03-26T10:41:23.557Z,5.83
2019-03-26T10:44:03.721Z,5.57
2019-03-26T10:46:44.684Z,6.73
2019-03-26T10:49:24.730Z,7.63
2019-03-26T10:52:04.718Z,8.13
2019-03-26T10:54:44.914Z,5.60
2019-03-26T10:57:24.790Z,6.10
2019-03-26T11:00:05.710Z,7.27
2019-03-26T11:02:45.773Z,5.50
2019-03-26T11:05:25.945Z,5.80
2019-03-26T11:08:05.912Z,5.70
2019-03-26T11:13:44.429Z,5.30
2019-03-26T11:16:25.462Z,5.63
2019-03-26T11:19:05.918Z,6.10
2019-03-26T11:21:45.839Z,5.40
2019-03-26T11:27:15.554Z,5.50
2019-03-26T11:35:54.336Z,5.13
2019-03-26T11:38:41.682Z,5.20
2019-03-26T11:41:09.949Z,5.10
2019-03-26T11:43:57.197Z,5.57
2019-03-26T11:46:25.341Z,4.97
2019-03-26T11:49:12.677Z,4.17
2019-03-26T11:51:52.933Z,5.10
2019-03-26T11:54:24.770Z,4.60
2019-03-26T11:57:12.082Z,4.57
2019-03-26T11:59:59.361Z,4.80
2019-03-26T12:02:39.462Z,4.50
2019-03-26T12:05:19.524Z,5.00
2019-03-26T12:07:59.505Z,4.50
2019-03-26T12:10:39.601Z,4.33
2019-03-26T12:13:19.698Z,4.97
2019-03-26T12:16:00.875Z,4.30
2019-03-26T12:18:39.298Z,4.40
2019-03-26T12:21:26.577Z,4.27
2019-03-26T12:24:07.131Z,4.83
2019-03-26T12:26:47.225Z,5.13
2019-03-26T12:29:27.078Z,4.83
2019-03-26T12:32:07.157Z,4.40
2019-03-26T12:34:47.048Z,4.77
2019-03-26T12:37:27.210Z,4.70
2019-03-26T12:40:07.406Z,4.10
2019-03-26T12:42:47.426Z,4.60
2019-03-26T12:45:27.807Z,4.47
2019-03-26T12:48:07.845Z,4.60
2019-03-26T12:50:47.933Z,4.77
2019-03-26T12:53:27.939Z,4.53
2019-03-26T12:56:07.910Z,4.60
2019-03-26T12:58:48.137Z,4.00
2019-03-26T13:01:18.565Z,4.10
2019-03-26T13:04:12.494Z,3.50
2019-03-26T13:06:47.243Z,3.33
2019-03-26T13:09:29.650Z,3.67
2019-03-26T13:12:09.548Z,3.90
2019-03-26T13:14:49.717Z,3.93
2019-03-26T13:17:29.949Z,3.97
2019-03-26T13:20:09.990Z,3.87
2019-03-26T13:22:50.102Z,4.20
2019-03-26T13:25:29.952Z,3.90
2019-03-26T13:28:10.311Z,3.73
2019-03-26T13:30:52.442Z,4.93
2019-03-26T13:33:33.074Z,3.60
2019-03-26T13:36:12.960Z,3.73
2019-03-26T13:38:41.618Z,4.00
2019-03-26T13:41:28.875Z,4.27
2019-03-26T13:44:09.298Z,4.03
2019-03-26T13:46:49.385Z,4.03
2019-03-26T13:49:29.463Z,4.07
2019-03-26T13:52:09.661Z,3.90
2019-03-26T13:54:49.598Z,4.90
2019-03-26T13:57:29.629Z,4.03
2019-03-26T14:00:09.686Z,4.30
2019-03-26T14:02:49.988Z,4.27
2019-03-26T14:05:30.065Z,4.53
2019-03-26T14:08:10.154Z,4.17
2019-03-26T14:10:50.274Z,4.87
2019-03-26T14:13:30.265Z,4.43
2019-03-26T14:16:10.428Z,4.20
2019-03-26T14:21:51.740Z,3.97
2019-03-26T14:24:31.806Z,3.90
2019-03-26T14:27:12.061Z,4.40
2019-03-26T14:29:51.875Z,3.90
2019-03-26T14:32:32.254Z,4.50
2019-03-26T14:38:13.876Z,4.93
2019-03-26T14:40:55.493Z,4.50
2019-03-26T14:43:35.847Z,4.27
2019-03-26T14:46:17.347Z,5.10
2019-03-26T14:48:45.737Z,4.63
2019-03-26T14:51:14.202Z,4.17
2019-03-26T14:54:01.521Z,4.00
2019-03-26T14:56:48.853Z,4.33
2019-03-26T14:59:17.121Z,4.30
2019-03-26T15:02:04.417Z,5.70
2019-03-26T15:04:44.264Z,5.07
2019-03-26T15:07:24.054Z,3.90
2019-03-26T15:10:04.593Z,4.47
2019-03-26T15:12:44.689Z,4.80
2019-03-26T15:15:25.030Z,4.23
2019-03-26T15:18:05.443Z,4.50
2019-03-26T15:20:45.711Z,4.20
2019-03-26T15:23:25.794Z,4.47
2019-03-26T15:26:06.029Z,4.10
2019-03-26T15:28:46.081Z,4.77
2019-03-26T15:31:27.911Z,4.33
2019-03-26T15:34:08.265Z,4.40
2019-03-26T15:36:49.364Z,4.27
2019-03-26T15:39:29.465Z,3.87
2019-03-26T15:42:09.313Z,4.23
2019-03-26T15:44:49.685Z,4.40
2019-03-26T15:47:29.622Z,4.13
2019-03-26T15:50:09.921Z,4.40
2019-03-26T15:52:50.598Z,3.93
2019-03-26T15:55:31.129Z,6.27
2019-03-26T15:58:11.051Z,5.83
2019-03-26T16:00:51.029Z,4.57
2019-03-26T16:03:31.594Z,3.80
2019-03-26T16:06:12.067Z,4.47
2019-03-26T16:08:51.926Z,4.13
2019-03-26T16:11:36.002Z,4.47
2019-03-26T16:14:14.533Z,4.50
2019-03-26T16:16:54.747Z,3.60
2019-03-26T16:19:36.530Z,4.00
2019-03-26T16:22:18.006Z,3.90
2019-03-26T16:24:46.395Z,3.90
2019-03-26T16:27:33.692Z,3.27
2019-03-26T16:30:13.903Z,4.03
2019-03-26T16:32:53.989Z,3.67
2019-03-26T16:35:34.058Z,3.40
2019-03-26T16:38:14.419Z,3.77
2019-03-26T16:40:54.526Z,3.70
2019-03-26T16:43:34.670Z,5.27
2019-03-26T16:46:14.858Z,3.40
2019-03-26T16:48:54.965Z,4.37
2019-03-26T16:51:35.170Z,3.43
2019-03-26T16:54:15.437Z,3.30
2019-03-26T16:56:55.541Z,3.30
2019-03-26T16:59:35.642Z,3.63
2019-03-26T17:02:17.167Z,3.57
2019-03-26T17:04:56.928Z,3.40
2019-03-26T17:07:37.065Z,3.43
2019-03-26T17:10:17.254Z,3.50
2019-03-26T17:12:58.198Z,6.50
2019-03-26T17:15:38.542Z,4.60
2019-03-26T17:18:21.973Z,5.17
2019-03-26T17:21:01.946Z,4.83
2019-03-26T17:23:47.449Z,4.73
2019-03-26T17:26:29.433Z,3.63
2019-03-26T17:29:09.334Z,3.77
2019-03-26T17:31:49.581Z,3.60
2019-03-26T17:34:29.647Z,4.17
2019-03-26T17:37:09.726Z,5.30
2019-03-26T17:39:50.138Z,6.23
2019-03-26T17:42:31.089Z,6.67
2019-03-26T17:45:11.481Z,5.47
2019-03-26T17:47:51.985Z,4.97
2019-03-26T17:50:32.074Z,6.83
2019-03-26T17:53:11.969Z,6.10
2019-03-26T17:55:52.003Z,7.00
2019-03-26T17:58:32.223Z,7.43
2019-03-26T18:01:12.274Z,5.57
2019-03-26T18:03:52.337Z,5.17
2019-03-26T18:06:32.613Z,5.63
2019-03-26T18:09:12.750Z,4.57
2019-03-26T18:11:52.716Z,4.73
2019-03-26T18:14:32.741Z,6.30
2019-03-26T18:19:55.823Z,10.17
2019-03-26T18:22:36.211Z,13.50
2019-03-26T18:25:17.488Z,12.63
2019-03-26T18:27:58.326Z,11.00
2019-03-26T18:30:39.991Z,7.30
2019-03-26T18:33:20.250Z,11.90
2019-03-26T18:36:00.456Z,10.30
2019-03-26T18:38:40.621Z,12.43
2019-03-26T18:41:20.740Z,10.17
2019-03-26T18:43:49.772Z,9.97
2019-03-26T18:46:18.437Z,10.63
2019-03-26T18:49:25.326Z,12.67
2019-03-26T18:52:12.921Z,12.50
2019-03-26T18:54:53.397Z,10.30
2019-03-26T18:57:33.659Z,9.57
2019-03-26T19:00:14.486Z,8.83
2019-03-26T19:02:54.336Z,9.63
2019-03-26T19:05:34.623Z,7.00
2019-03-26T19:08:15.185Z,8.27
2019-03-26T19:10:55.657Z,6.13
2019-03-26T19:13:35.683Z,7.00
2019-03-26T19:16:16.776Z,9.40
2019-03-26T19:18:56.873Z,8.33
2019-03-26T19:21:25.754Z,6.73
2019-03-26T19:24:15.529Z,7.73
2019-03-26T19:27:04.371Z,5.97
2019-03-26T19:29:44.830Z,6.83
2019-03-26T19:35:38.013Z,7.03
2019-03-26T19:38:18.136Z,8.30
2019-03-26T19:40:58.747Z,6.27
2019-03-26T19:43:38.360Z,8.93
2019-03-26T19:46:18.658Z,6.40
2019-03-26T19:49:01.080Z,8.00
2019-03-26T19:51:40.799Z,8.97
2019-03-26T19:54:20.865Z,9.13
2019-03-26T19:57:08.205Z,7.43
2019-03-26T19:59:55.529Z,4.73
2019-03-26T20:02:35.737Z,6.60
2019-03-26T20:05:16.106Z,7.63
2019-03-26T20:07:56.649Z,7.27
2019-03-26T20:10:36.299Z,6.87
2019-03-26T20:13:24.164Z,6.87
2019-03-26T20:15:58.760Z,5.80
2019-03-26T20:18:40.713Z,5.53
2019-03-26T20:21:22.350Z,5.93
2019-03-26T20:24:02.411Z,8.97
2019-03-26T20:26:43.761Z,9.87
2019-03-26T20:29:23.762Z,6.80
2019-03-26T20:32:04.795Z,6.87
2019-03-26T20:34:45.361Z,7.83
2019-03-26T20:40:38.347Z,13.90
2019-03-26T20:43:18.131Z,9.90
2019-03-26T20:45:58.897Z,8.67
2019-03-26T20:48:39.389Z,10.10
2019-03-26T20:51:22.346Z,8.57
2019-03-26T20:54:03.254Z,15.33
2019-03-26T20:56:43.145Z,7.27
2019-03-26T20:59:23.059Z,8.63
2019-03-26T21:02:03.185Z,22.00
2019-03-26T21:04:43.513Z,7.93
2019-03-26T21:07:24.282Z,41.13
2019-03-26T21:10:04.671Z,24.77
2019-03-26T21:12:44.786Z,15.43
2019-03-26T21:15:25.369Z,23.73
2019-03-26T21:18:05.783Z,7.03
2019-03-26T21:20:45.745Z,10.53
2019-03-26T21:23:25.925Z,11.93
2019-03-26T21:26:05.999Z,5.77
2019-03-26T21:28:46.278Z,8.83
2019-03-26T21:31:26.328Z,6.20
2019-03-26T21:34:06.944Z,8.13
2019-03-26T21:36:47.711Z,7.50
2019-03-26T21:39:16.046Z,7.80
2019-03-26T21:42:03.369Z,5.63
2019-03-26T21:44:43.126Z,5.53
2019-03-26T21:47:23.410Z,6.17
2019-03-26T21:50:03.673Z,6.10
2019-03-26T21:52:43.669Z,4.73
2019-03-26T21:55:24.942Z,5.57
2019-03-26T21:58:04.997Z,5.63
2019-03-26T22:00:45.648Z,6.67
2019-03-26T22:03:13.889Z,6.43
2019-03-26T22:08:55.039Z,5.27
2019-03-26T22:11:49.764Z,6.60
2019-03-26T22:14:24.286Z,6.77
2019-03-26T22:17:04.581Z,8.43
2019-03-26T22:19:44.761Z,6.20
2019-03-26T22:22:24.945Z,6.50
2019-03-26T22:25:04.797Z,6.90
2019-03-26T22:27:46.429Z,5.67
2019-03-26T22:30:27.367Z,6.67
2019-03-26T22:33:07.205Z,5.63
2019-03-26T22:35:47.650Z,5.17
2019-03-26T22:41:39.288Z,7.53
2019-03-26T22:44:30.756Z,7.03
2019-03-26T22:47:01.579Z,10.10
2019-03-26T22:49:41.646Z,6.63
2019-03-26T22:52:21.681Z,8.07
2019-03-26T22:55:02.036Z,7.03
2019-03-26T22:57:41.935Z,7.13
2019-03-26T23:00:22.209Z,6.97
2019-03-26T23:02:50.451Z,7.07
2019-03-26T23:05:18.901Z,5.97
2019-03-26T23:08:06.190Z,7.10
2019-03-26T23:10:53.536Z,6.40
2019-03-26T23:16:45.916Z,7.77
2019-03-26T23:19:25.921Z,7.27
2019-03-26T23:22:06.335Z,6.97
2019-03-26T23:24:46.387Z,7.30
2019-03-26T23:27:26.269Z,7.17
2019-03-26T23:30:06.396Z,7.13
2019-03-26T23:32:46.593Z,7.97
2019-03-26T23:35:28.334Z,5.97
2019-03-26T23:38:08.805Z,6.30
2019-03-26T23:40:48.869Z,6.23
2019-03-26T23:43:28.825Z,6.83
2019-03-26T23:46:08.938Z,6.70
2019-03-26T23:48:49.083Z,5.70
2019-03-26T23:51:28.981Z,7.47
2019-03-26T23:54:08.965Z,6.50
2019-03-26T23:56:49.110Z,6.10
2019-03-26T23:59:29.750Z,6.77
